Time;durP1;ratioP1;P1;durP2;ratioP2;P2;SDS_P1;SDS_P2;PMS_P1;PMS_P2;Temp;Humidity;BMP_temperature;BMP_pressure;BME280_temperature;BME280_humidity;BME280_pressure;Samples;Min_cycle;Max_cycle;Signal;HPM_P1;HPM_P2
2022/12/19 00:01:27;;;;;;;28.85;19.63;;;-1.70;99.90;;;;;;6088018;23;20202;-70
2022/12/19 00:03:56;;;;;;;31.58;19.88;;;-1.70;99.90;;;;;;6088698;23;20319;-70
2022/12/19 00:06:24;;;;;;;30.35;20.80;;;-1.70;99.90;;;;;;6086814;23;20664;-71
2022/12/19 00:08:53;;;;;;;29.65;17.95;;;-1.60;99.90;;;;;;6089064;23;20842;-70
2022/12/19 00:11:22;;;;;;;28.65;19.45;;;-1.60;99.90;;;;;;6086616;23;20189;-70
2022/12/19 00:13:49;;;;;;;33.63;20.63;;;-1.60;99.90;;;;;;6087554;23;20680;-70
2022/12/19 00:16:19;;;;;;;28.75;19.27;;;-1.60;99.90;;;;;;6090574;23;20191;-71
2022/12/19 00:18:49;;;;;;;29.13;19.80;;;-1.60;99.90;;;;;;6088797;23;20195;-71
2022/12/19 00:21:18;;;;;;;28.33;17.95;;;-1.60;99.90;;;;;;6089084;23;20693;-72
2022/12/19 00:23:47;;;;;;;29.63;19.38;;;-1.60;99.90;;;;;;6082269;23;20618;-70
2022/12/19 00:26:16;;;;;;;30.30;19.40;;;-1.70;99.90;;;;;;6088232;23;20196;-71
2022/12/19 00:28:45;;;;;;;29.30;19.13;;;-1.70;99.90;;;;;;6083227;23;20648;-71
2022/12/19 00:31:12;;;;;;;30.30;20.30;;;-1.70;99.90;;;;;;6085985;23;20226;-71
2022/12/19 00:33:40;;;;;;;30.77;19.33;;;-1.70;99.90;;;;;;6101400;23;20228;-71
2022/12/19 00:36:13;;;;;;;31.00;20.98;;;-1.80;99.90;;;;;;6092421;23;20197;-71
2022/12/19 00:38:43;;;;;;;29.30;19.92;;;-1.80;99.90;;;;;;6071723;23;20304;-71
2022/12/19 00:41:13;;;;;;;31.58;19.15;;;-1.80;99.90;;;;;;6088192;23;20787;-71
2022/12/19 00:43:42;;;;;;;31.65;20.92;;;-1.80;99.90;;;;;;6088668;23;20463;-71
2022/12/19 00:46:11;;;;;;;30.08;18.88;;;-1.80;99.90;;;;;;6089943;23;20220;-70
2022/12/19 00:48:38;;;;;;;28.77;18.85;;;-1.90;99.90;;;;;;6086283;23;20669;-70
2022/12/19 00:51:10;;;;;;;29.20;19.65;;;-1.90;99.90;;;;;;6087976;23;20189;-71
2022/12/19 00:53:37;;;;;;;27.40;18.95;;;-1.80;99.90;;;;;;6084214;23;20222;-71
2022/12/19 00:56:06;;;;;;;27.33;17.80;;;-1.70;99.90;;;;;;6088511;23;20214;-70
2022/12/19 00:58:34;;;;;;;33.03;20.13;;;-1.70;99.90;;;;;;6088579;23;20218;-70
2022/12/19 01:01:06;;;;;;;28.92;19.10;;;-1.70;99.90;;;;;;6084306;23;20309;-70
2022/12/19 01:03:33;;;;;;;31.10;18.92;;;-1.60;99.90;;;;;;6080078;23;20591;-71
2022/12/19 01:06:00;;;;;;;30.77;19.00;;;-1.60;99.90;;;;;;6087873;23;20199;-71
2022/12/19 01:08:28;;;;;;;30.08;18.70;;;-1.60;99.90;;;;;;6088325;23;20442;-71
2022/12/19 01:10:56;;;;;;;28.48;19.27;;;-1.60;99.90;;;;;;6089464;23;20271;-70
2022/12/19 01:13:22;;;;;;;31.45;18.65;;;-1.60;99.90;;;;;;6086388;23;20645;-70
2022/12/19 01:15:50;;;;;;;27.63;17.77;;;-1.60;99.90;;;;;;6078728;23;20213;-71
2022/12/19 01:18:17;;;;;;;29.08;17.40;;;-1.60;99.90;;;;;;6089357;23;20276;-70
2022/12/19 01:20:46;;;;;;;28.75;18.70;;;-1.60;99.90;;;;;;6087147;23;20247;-71
2022/12/19 01:23:15;;;;;;;30.15;19.63;;;-1.50;99.90;;;;;;6089421;23;20215;-70
2022/12/19 01:25:49;;;;;;;30.20;19.23;;;-1.50;99.90;;;;;;6087459;23;20274;-71
2022/12/19 01:28:16;;;;;;;29.92;19.77;;;-1.50;99.90;;;;;;6082749;23;20227;-70
2022/12/19 01:30:43;;;;;;;30.17;18.10;;;-1.50;99.90;;;;;;6086231;23;20287;-71
2022/12/19 01:33:12;;;;;;;32.50;21.17;;;-1.50;99.90;;;;;;6085630;23;20245;-71
2022/12/19 01:35:39;;;;;;;31.85;19.38;;;-1.50;99.90;;;;;;6078449;23;20577;-71
2022/12/19 01:38:06;;;;;;;30.27;21.05;;;-1.40;99.90;;;;;;6089741;23;20215;-70
2022/12/19 01:40:34;;;;;;;30.42;18.90;;;-1.40;99.90;;;;;;6088047;23;20644;-71
2022/12/19 01:43:03;;;;;;;30.05;19.60;;;-1.30;99.90;;;;;;6088854;23;20205;-70
2022/12/19 01:45:31;;;;;;;30.35;18.45;;;-1.30;99.90;;;;;;6087295;23;20188;-71
2022/12/19 01:48:04;;;;;;;28.55;18.60;;;-1.30;99.90;;;;;;6089423;23;20275;-71
2022/12/19 01:50:36;;;;;;;32.70;19.90;;;-1.30;99.90;;;;;;6086129;23;20194;-71
2022/12/19 01:53:05;;;;;;;31.30;18.17;;;-1.30;99.90;;;;;;6084390;23;20250;-71
2022/12/19 01:55:33;;;;;;;30.40;19.65;;;-1.30;99.90;;;;;;6085895;23;20203;-71
2022/12/19 01:58:03;;;;;;;29.70;19.30;;;-1.30;99.90;;;;;;6087179;23;20223;-71
2022/12/19 02:00:32;;;;;;;27.63;18.38;;;-1.30;99.90;;;;;;6083612;23;20212;-70
2022/12/19 02:03:03;;;;;;;29.83;19.60;;;-1.30;99.90;;;;;;6083307;23;20248;-71
2022/12/19 02:05:31;;;;;;;29.73;20.27;;;-1.30;99.90;;;;;;6084342;23;20276;-71
2022/12/19 02:07:59;;;;;;;29.00;19.30;;;-1.20;99.90;;;;;;6090191;23;20561;-70
2022/12/19 02:10:27;;;;;;;31.20;19.85;;;-1.20;99.90;;;;;;6084115;23;20657;-71
2022/12/19 02:12:54;;;;;;;30.80;19.95;;;-1.10;99.90;;;;;;6087934;23;20660;-71
2022/12/19 02:15:25;;;;;;;30.60;19.85;;;-1.10;99.90;;;;;;6086699;23;20249;-70
2022/12/19 02:18:07;;;;;;;33.38;19.88;;;-1.10;99.90;;;;;;6085735;23;20196;-71
2022/12/19 02:21:03;;;;;;;27.38;18.17;;;-1.20;99.90;;;;;;6085316;23;20281;-71
2022/12/19 02:24:06;;;;;;;29.63;19.00;;;-1.20;99.90;;;;;;6086378;23;20206;-70
2022/12/19 02:27:08;;;;;;;30.75;19.23;;;-1.20;99.90;;;;;;6088405;23;20278;-70
2022/12/19 02:30:06;;;;;;;32.05;20.55;;;-1.10;99.90;;;;;;6052093;23;20196;-70
2022/12/19 02:32:44;;;;;;;33.22;21.30;;;-1.00;99.90;;;;;;6079835;23;20222;-70
2022/12/19 02:35:23;;;;;;;31.25;19.58;;;-1.00;99.90;;;;;;6084477;23;20195;-70
2022/12/19 02:37:56;;;;;;;29.48;20.20;;;-1.00;99.90;;;;;;6087185;23;20249;-70
2022/12/19 02:40:27;;;;;;;30.88;20.13;;;-1.10;99.90;;;;;;6087445;23;20298;-70
2022/12/19 02:42:58;;;;;;;34.05;20.23;;;-1.10;99.90;;;;;;6084595;23;20201;-71
2022/12/19 02:45:27;;;;;;;30.63;20.40;;;-1.10;99.90;;;;;;6081210;23;20234;-71
2022/12/19 02:48:01;;;;;;;35.22;21.08;;;-1.10;99.90;;;;;;6085264;23;20200;-70
2022/12/19 02:50:36;;;;;;;32.28;19.20;;;-1.20;99.90;;;;;;6078378;23;20192;-71
2022/12/19 02:53:03;;;;;;;28.58;19.60;;;-1.10;99.90;;;;;;6082959;23;20204;-70
2022/12/19 02:55:32;;;;;;;33.22;20.30;;;-1.10;99.90;;;;;;6087012;23;20224;-72
2022/12/19 02:58:18;;;;;;;33.80;19.40;;;-1.00;99.90;;;;;;6086898;23;20192;-71
2022/12/19 03:00:54;;;;;;;34.45;21.67;;;-1.00;99.90;;;;;;6074690;23;20212;-70
2022/12/19 03:03:34;;;;;;;36.15;23.77;;;-0.90;99.90;;;;;;6081618;23;20192;-70
2022/12/19 03:06:07;;;;;;;36.95;22.15;;;-0.90;99.90;;;;;;6084690;23;20202;-71
2022/12/19 03:08:42;;;;;;;33.20;22.58;;;-0.80;99.90;;;;;;6088149;23;20330;-70
2022/12/19 03:11:12;;;;;;;33.63;21.10;;;-0.80;99.90;;;;;;6066474;23;20246;-71
2022/12/19 03:13:44;;;;;;;37.70;23.67;;;-0.80;99.90;;;;;;6087513;23;20196;-70
2022/12/19 03:16:12;;;;;;;35.13;20.92;;;-0.80;99.90;;;;;;6076515;23;20511;-70
2022/12/19 03:18:41;;;;;;;36.08;24.35;;;-0.80;99.90;;;;;;6085452;23;20224;-71
2022/12/19 03:21:14;;;;;;;34.20;21.70;;;-0.70;99.90;;;;;;6087848;23;20224;-70
2022/12/19 03:23:42;;;;;;;35.22;23.27;;;-0.70;99.90;;;;;;6082941;23;20203;-71
2022/12/19 03:26:12;;;;;;;36.42;24.05;;;-0.70;99.90;;;;;;6086958;23;20616;-70
2022/12/19 03:28:43;;;;;;;34.15;22.88;;;-0.60;99.90;;;;;;6087311;23;20192;-71
2022/12/19 03:31:14;;;;;;;29.95;20.98;;;-0.60;99.90;;;;;;6089654;23;20192;-71
2022/12/19 03:33:45;;;;;;;33.10;21.73;;;-0.50;99.90;;;;;;6085733;23;20243;-72
2022/12/19 03:36:19;;;;;;;34.30;21.50;;;-0.50;99.90;;;;;;6085908;23;20303;-72
2022/12/19 03:38:48;;;;;;;35.08;22.25;;;-0.40;99.90;;;;;;6077939;23;20196;-70
2022/12/19 03:43:07;;;;;;;37.33;22.25;;;-0.40;99.90;;;;;;6088280;23;20705;-71
2022/12/19 03:44:07;;;;;;;37.20;24.65;;;-0.40;99.90;;;;;;6083789;23;20191;-70
2022/12/19 03:46:38;;;;;;;38.95;23.10;;;-0.40;99.90;;;;;;6078357;23;20267;-71
2022/12/19 03:49:07;;;;;;;31.88;20.70;;;-0.40;99.90;;;;;;6088110;23;20220;-71
2022/12/19 03:51:45;;;;;;;30.80;21.55;;;-0.40;99.90;;;;;;6088397;23;20228;-70
2022/12/19 03:54:18;;;;;;;35.72;23.48;;;-0.40;99.90;;;;;;6085029;23;20196;-70
2022/12/19 03:56:50;;;;;;;34.50;22.02;;;-0.30;99.90;;;;;;6087709;23;20216;-71
2022/12/19 03:59:22;;;;;;;34.08;22.90;;;-0.30;99.90;;;;;;6075254;23;20196;-71
2022/12/19 04:01:51;;;;;;;34.35;22.42;;;-0.30;99.90;;;;;;6079131;23;20219;-71
2022/12/19 04:04:22;;;;;;;34.85;20.92;;;-0.30;99.90;;;;;;6085146;23;20283;-72
2022/12/19 04:06:51;;;;;;;31.92;21.77;;;-0.30;99.90;;;;;;6081702;23;20219;-71
2022/12/19 04:09:21;;;;;;;34.75;22.58;;;-0.30;99.90;;;;;;6085598;23;20288;-71
2022/12/19 04:11:53;;;;;;;35.38;22.40;;;-0.30;99.90;;;;;;6077742;23;20184;-71
2022/12/19 04:14:30;;;;;;;36.05;22.67;;;-0.30;99.90;;;;;;6092248;23;20204;-71
2022/12/19 04:17:06;;;;;;;35.63;23.55;;;-0.30;99.90;;;;;;6080305;23;20614;-70
2022/12/19 04:19:42;;;;;;;33.53;22.23;;;-0.30;99.90;;;;;;6088592;23;20220;-71
2022/12/19 04:22:14;;;;;;;36.40;22.80;;;-0.30;99.90;;;;;;6081207;23;20226;-71
2022/12/19 04:24:45;;;;;;;42.28;24.98;;;-0.20;99.90;;;;;;6087304;23;20216;-71
2022/12/19 04:27:13;;;;;;;40.20;23.35;;;-0.20;99.90;;;;;;6087526;23;20196;-70
2022/12/19 04:29:41;;;;;;;40.72;25.25;;;-0.10;99.90;;;;;;6082851;23;20612;-71
2022/12/19 04:32:09;;;;;;;39.22;24.35;;;-0.10;99.90;;;;;;6077670;23;20531;-71
2022/12/19 04:34:38;;;;;;;36.22;23.08;;;0.00;99.90;;;;;;6083677;23;20277;-70
2022/12/19 04:37:05;;;;;;;38.08;24.60;;;0.00;99.90;;;;;;6085709;23;20574;-71
2022/12/19 04:39:32;;;;;;;35.05;22.27;;;0.10;99.90;;;;;;6078474;23;20276;-71
2022/12/19 04:41:59;;;;;;;35.83;23.20;;;0.10;99.90;;;;;;6085788;23;20665;-70
2022/12/19 04:44:26;;;;;;;37.00;25.27;;;0.10;99.90;;;;;;6086291;23;20200;-71
2022/12/19 04:46:53;;;;;;;37.90;23.98;;;0.20;99.90;;;;;;6082463;23;20196;-70
2022/12/19 04:49:20;;;;;;;37.42;24.00;;;0.20;99.90;;;;;;6090441;23;20275;-71
2022/12/19 04:51:49;;;;;;;40.15;25.75;;;0.20;99.90;;;;;;6083558;23;20593;-70
2022/12/19 04:54:16;;;;;;;36.03;23.02;;;0.20;99.90;;;;;;6087732;23;20192;-70
2022/12/19 04:56:43;;;;;;;35.55;22.30;;;0.20;99.90;;;;;;6086206;23;20543;-70
2022/12/19 04:59:10;;;;;;;35.15;22.75;;;0.20;99.90;;;;;;6090181;23;20222;-70
2022/12/19 05:01:37;;;;;;;36.05;21.95;;;0.20;99.90;;;;;;6092298;23;20279;-70
2022/12/19 05:04:05;;;;;;;38.15;25.00;;;0.20;99.90;;;;;;6108946;23;20195;-71
2022/12/19 05:06:32;;;;;;;36.53;23.80;;;0.20;99.90;;;;;;6087806;23;20296;-70
2022/12/19 05:09:00;;;;;;;37.47;23.40;;;0.20;99.90;;;;;;6085428;23;20215;-71
2022/12/19 05:11:27;;;;;;;37.13;23.85;;;0.20;99.90;;;;;;6086973;23;20823;-70
2022/12/19 05:13:55;;;;;;;36.35;21.63;;;0.30;99.90;;;;;;6089418;23;20220;-71
2022/12/19 05:16:22;;;;;;;33.40;21.90;;;0.30;99.90;;;;;;6085379;23;20203;-71
2022/12/19 05:18:49;;;;;;;33.40;22.60;;;0.30;99.90;;;;;;6088685;23;20204;-71
2022/12/19 05:21:16;;;;;;;37.22;23.60;;;0.30;99.90;;;;;;6086206;23;20266;-71
2022/12/19 05:23:43;;;;;;;37.50;22.15;;;0.40;99.90;;;;;;6082406;23;20188;-71
2022/12/19 05:26:12;;;;;;;36.35;22.30;;;0.40;99.90;;;;;;6087530;23;20203;-70
2022/12/19 05:28:40;;;;;;;39.90;23.40;;;0.50;99.90;;;;;;6086857;23;20193;-71
2022/12/19 05:31:10;;;;;;;38.30;24.70;;;0.50;99.90;;;;;;6100673;23;20291;-70
2022/12/19 05:33:38;;;;;;;36.75;24.35;;;0.50;99.90;;;;;;6088362;23;20656;-72
2022/12/19 05:36:07;;;;;;;33.05;21.40;;;0.60;99.90;;;;;;6091743;23;20677;-71
2022/12/19 05:38:35;;;;;;;36.63;21.88;;;0.70;99.90;;;;;;6090321;23;20223;-71
2022/12/19 05:41:07;;;;;;;37.53;22.75;;;0.70;99.90;;;;;;6083201;23;20271;-71
2022/12/19 05:43:35;;;;;;;36.33;23.85;;;0.70;99.90;;;;;;6090157;23;20275;-71
2022/12/19 05:46:04;;;;;;;32.70;20.77;;;0.70;99.90;;;;;;6077177;23;20247;-71
2022/12/19 05:48:31;;;;;;;33.20;22.85;;;0.80;99.90;;;;;;6087244;23;20275;-71
2022/12/19 05:50:59;;;;;;;37.38;21.58;;;0.80;99.90;;;;;;6087979;23;20676;-70
2022/12/19 05:53:27;;;;;;;34.85;22.50;;;0.90;99.90;;;;;;6088936;23;20228;-72
2022/12/19 05:56:02;;;;;;;35.63;23.00;;;0.90;99.90;;;;;;6074619;23;20200;-71
2022/12/19 05:58:30;;;;;;;34.53;22.67;;;0.90;99.90;;;;;;6088130;23;20192;-71
2022/12/19 06:01:03;;;;;;;34.67;22.13;;;0.90;99.90;;;;;;6080861;23;20195;-71
2022/12/19 06:03:30;;;;;;;36.90;21.83;;;0.90;99.90;;;;;;6064020;23;20619;-71
2022/12/19 06:05:57;;;;;;;34.38;20.55;;;0.80;99.90;;;;;;6086965;23;20246;-71
2022/12/19 06:08:24;;;;;;;35.47;23.20;;;0.80;99.90;;;;;;6087121;23;20237;-71
2022/12/19 06:10:51;;;;;;;37.78;22.42;;;0.80;99.90;;;;;;6087538;23;20193;-71
2022/12/19 06:13:19;;;;;;;32.80;21.05;;;0.50;99.90;;;;;;6078361;23;20271;-72
2022/12/19 06:15:46;;;;;;;38.85;20.60;;;0.80;99.90;;;;;;6077950;23;20200;-71
2022/12/19 06:18:15;;;;;;;36.10;21.48;;;0.80;99.90;;;;;;6082698;23;20539;-71
2022/12/19 06:20:42;;;;;;;34.42;21.00;;;0.80;99.90;;;;;;6087573;23;20204;-71
2022/12/19 06:23:09;;;;;;;33.45;21.23;;;0.90;99.90;;;;;;6083074;23;20235;-71
2022/12/19 06:25:36;;;;;;;34.95;22.58;;;0.90;99.90;;;;;;6084731;23;20750;-71
2022/12/19 06:28:04;;;;;;;36.33;22.65;;;0.90;99.90;;;;;;6085867;23;20649;-71
2022/12/19 06:30:31;;;;;;;35.53;22.52;;;1.00;99.90;;;;;;6087713;23;20320;-71
2022/12/19 06:32:58;;;;;;;33.10;21.98;;;1.00;99.90;;;;;;6083480;23;20646;-71
2022/12/19 06:35:27;;;;;;;36.95;23.90;;;1.00;99.90;;;;;;6080146;23;20201;-71
2022/12/19 06:37:54;;;;;;;33.67;22.95;;;1.00;99.90;;;;;;6083769;23;20192;-76
2022/12/19 06:43:02;;;;;;;34.38;22.85;;;1.10;99.90;;;;;;6074043;23;20216;-70
2022/12/19 06:45:30;;;;;;;32.10;21.05;;;1.10;99.90;;;;;;6080776;23;20196;-72
2022/12/19 06:47:57;;;;;;;34.55;22.73;;;1.10;99.90;;;;;;6085253;23;20197;-72
2022/12/19 06:50:25;;;;;;;35.50;22.85;;;1.10;99.90;;;;;;6085717;23;20189;-71
2022/12/19 06:52:53;;;;;;;41.83;24.83;;;1.10;99.90;;;;;;6084282;23;20338;-71
2022/12/19 06:55:20;;;;;;;36.47;22.67;;;1.10;99.90;;;;;;6080024;23;20259;-73
2022/12/19 06:57:47;;;;;;;33.38;21.48;;;1.10;99.90;;;;;;6080909;23;20192;-72
2022/12/19 07:00:15;;;;;;;34.25;23.10;;;1.10;99.90;;;;;;6082669;23;20746;-71
2022/12/19 07:02:49;;;;;;;37.72;23.05;;;1.20;99.90;;;;;;6081605;23;20232;-72
2022/12/19 07:05:16;;;;;;;33.35;22.30;;;1.20;99.90;;;;;;6075214;23;20267;-71
2022/12/19 07:07:43;;;;;;;32.30;22.02;;;1.20;99.90;;;;;;6083107;23;20637;-71
2022/12/19 07:10:11;;;;;;;37.08;23.85;;;1.20;99.90;;;;;;6073517;23;20200;-72
2022/12/19 07:12:39;;;;;;;32.78;22.02;;;1.30;99.90;;;;;;6083902;23;20189;-71
2022/12/19 07:15:07;;;;;;;34.08;23.48;;;1.30;99.90;;;;;;6086990;23;20188;-71
2022/12/19 07:17:37;;;;;;;34.80;22.52;;;1.30;99.90;;;;;;6084127;23;20200;-71
2022/12/19 07:20:05;;;;;;;37.92;25.35;;;1.30;99.90;;;;;;6075995;23;20278;-72
2022/12/19 07:22:35;;;;;;;35.90;23.60;;;1.30;99.90;;;;;;6082994;23;20606;-71
2022/12/19 07:25:03;;;;;;;32.65;21.40;;;1.30;99.90;;;;;;6081567;23;20249;-70
2022/12/19 07:27:32;;;;;;;39.40;24.08;;;1.30;99.90;;;;;;6083370;23;20220;-71
2022/12/19 07:29:59;;;;;;;34.13;21.42;;;1.30;99.90;;;;;;6080317;23;20243;-70
2022/12/19 07:32:26;;;;;;;33.15;21.67;;;1.30;99.90;;;;;;6084237;23;20310;-71
2022/12/19 07:34:56;;;;;;;33.13;22.30;;;1.30;99.90;;;;;;6078014;23;20682;-70
2022/12/19 07:37:23;;;;;;;34.03;22.10;;;1.30;99.90;;;;;;6080372;23;20802;-70
2022/12/19 07:39:51;;;;;;;36.30;25.33;;;1.40;99.90;;;;;;6087628;23;20560;-78
2022/12/19 07:42:20;;;;;;;31.15;21.27;;;1.40;99.90;;;;;;6090633;23;20330;-80
2022/12/19 07:44:48;;;;;;;31.25;20.90;;;1.50;99.90;;;;;;6076408;23;20188;-70
2022/12/19 07:47:16;;;;;;;34.92;23.58;;;1.50;99.90;;;;;;6070789;23;20268;-70
2022/12/19 07:49:43;;;;;;;33.25;22.92;;;1.50;99.90;;;;;;6083573;23;20816;-69
2022/12/19 07:52:10;;;;;;;28.60;21.10;;;1.50;99.90;;;;;;6076495;23;20189;-70
2022/12/19 07:54:37;;;;;;;35.20;21.35;;;1.50;99.90;;;;;;6084321;23;20524;-70
2022/12/19 07:57:05;;;;;;;36.47;23.60;;;1.60;99.90;;;;;;6077571;23;20672;-70
2022/12/19 07:59:32;;;;;;;33.95;22.40;;;1.60;99.90;;;;;;6077857;23;20243;-69
2022/12/19 08:02:00;;;;;;;33.42;23.80;;;1.60;99.90;;;;;;6080660;23;20293;-70
2022/12/19 08:04:27;;;;;;;33.28;22.10;;;1.60;99.90;;;;;;6070224;23;20728;-70
2022/12/19 08:06:54;;;;;;;34.80;22.25;;;1.70;99.90;;;;;;6081116;23;20199;-70
2022/12/19 08:09:26;;;;;;;33.42;22.42;;;1.70;99.90;;;;;;6079947;23;20198;-70
2022/12/19 08:11:53;;;;;;;32.92;23.55;;;1.80;99.90;;;;;;6068989;23;20671;-70
2022/12/19 08:14:21;;;;;;;34.88;23.40;;;1.90;99.90;;;;;;6073243;23;20196;-71
2022/12/19 08:16:48;;;;;;;29.02;20.38;;;1.90;99.90;;;;;;6071769;23;20281;-70
2022/12/19 08:19:16;;;;;;;31.35;23.42;;;2.00;99.90;;;;;;6077680;23;20262;-70
2022/12/19 08:21:44;;;;;;;31.23;20.67;;;2.00;99.90;;;;;;6079962;23;20197;-70
2022/12/19 08:24:11;;;;;;;30.25;21.80;;;2.00;99.90;;;;;;6081244;23;20205;-70
2022/12/19 08:26:38;;;;;;;30.95;21.40;;;2.10;99.90;;;;;;6073690;23;20787;-70
2022/12/19 08:29:06;;;;;;;28.65;20.00;;;2.20;99.90;;;;;;6072831;23;20271;-70
2022/12/19 08:31:33;;;;;;;28.35;20.58;;;2.20;99.90;;;;;;6073931;23;20194;-70
2022/12/19 08:34:00;;;;;;;30.60;20.95;;;2.30;99.90;;;;;;6085855;23;20186;-70
2022/12/19 08:36:29;;;;;;;28.02;19.55;;;2.30;99.90;;;;;;6077468;23;20568;-70
2022/12/19 08:38:57;;;;;;;29.98;21.00;;;2.40;99.90;;;;;;6075458;23;20223;-71
2022/12/19 08:41:24;;;;;;;28.52;19.65;;;2.40;99.90;;;;;;6086106;23;20187;-70
2022/12/19 08:43:52;;;;;;;28.45;19.35;;;2.50;99.90;;;;;;6075668;23;20631;-71
2022/12/19 08:46:20;;;;;;;31.15;19.60;;;2.50;99.90;;;;;;6081612;23;20190;-71
2022/12/19 08:48:47;;;;;;;24.50;17.77;;;2.60;99.90;;;;;;6084078;23;20618;-70
2022/12/19 08:51:15;;;;;;;30.63;18.80;;;2.60;99.90;;;;;;6078473;23;20200;-71
2022/12/19 08:53:45;;;;;;;29.58;19.95;;;2.70;99.90;;;;;;6077623;23;20186;-71
2022/12/19 08:56:14;;;;;;;25.50;17.95;;;2.60;99.90;;;;;;6084939;23;20277;-71
2022/12/19 08:58:42;;;;;;;28.30;20.48;;;2.70;99.90;;;;;;6085847;23;20255;-70
2022/12/19 09:01:12;;;;;;;26.85;20.40;;;2.70;99.90;;;;;;6071429;23;20277;-71
2022/12/19 09:03:40;;;;;;;26.17;19.50;;;2.70;99.90;;;;;;6085651;23;20649;-71
2022/12/19 09:06:10;;;;;;;31.35;20.08;;;2.70;99.90;;;;;;6075853;23;20189;-71
2022/12/19 09:08:38;;;;;;;27.08;20.00;;;2.70;99.90;;;;;;6085179;23;20602;-70
2022/12/19 09:11:10;;;;;;;26.30;20.25;;;2.70;99.90;;;;;;6082020;23;20229;-71
2022/12/19 09:13:40;;;;;;;27.40;19.30;;;2.70;99.90;;;;;;6084748;23;20675;-71
2022/12/19 09:16:10;;;;;;;29.13;20.35;;;2.70;99.90;;;;;;6064384;23;20199;-71
2022/12/19 09:18:38;;;;;;;29.02;20.60;;;2.80;99.90;;;;;;6078444;23;20250;-71
2022/12/19 09:21:06;;;;;;;25.60;18.00;;;2.80;99.90;;;;;;6087025;23;20292;-71
2022/12/19 09:23:34;;;;;;;26.27;19.00;;;2.80;99.90;;;;;;6077935;23;20647;-69
2022/12/19 09:26:08;;;;;;;26.63;18.88;;;2.90;99.90;;;;;;6068999;23;20599;-71
2022/12/19 09:28:36;;;;;;;25.52;18.27;;;2.90;99.90;;;;;;6084422;23;20189;-71
2022/12/19 09:31:06;;;;;;;29.27;20.63;;;3.00;99.90;;;;;;6083546;23;20219;-71
2022/12/19 09:33:35;;;;;;;25.75;18.80;;;3.00;99.90;;;;;;6076397;23;20640;-71
2022/12/19 09:36:03;;;;;;;29.92;18.75;;;3.00;99.90;;;;;;6089090;23;20529;-71
2022/12/19 09:38:31;;;;;;;24.73;18.83;;;3.00;99.90;;;;;;6083743;23;20723;-70
2022/12/19 09:41:29;;;;;;;25.50;19.60;;;3.10;99.90;;;;;;6086244;23;20203;-72
2022/12/19 09:44:08;;;;;;;21.33;17.05;;;3.20;99.90;;;;;;6073245;23;20679;-71
2022/12/19 09:46:45;;;;;;;24.45;18.13;;;3.30;99.90;;;;;;6089069;23;20191;-71
2022/12/19 09:49:14;;;;;;;26.02;18.65;;;3.40;99.90;;;;;;6084869;23;20294;-71
2022/12/19 09:51:49;;;;;;;26.35;18.67;;;3.40;99.90;;;;;;6085742;23;20266;-71
2022/12/19 09:54:22;;;;;;;26.00;16.98;;;3.60;99.90;;;;;;6084204;23;20874;-70
2022/12/19 09:56:55;;;;;;;23.05;18.20;;;3.70;99.90;;;;;;6078661;23;20704;-70
2022/12/19 09:59:28;;;;;;;25.58;19.33;;;3.80;99.90;;;;;;6084001;23;20198;-71
2022/12/19 10:01:59;;;;;;;24.75;17.83;;;3.90;99.90;;;;;;6079900;23;20272;-71
2022/12/19 10:04:30;;;;;;;26.17;18.38;;;4.00;99.90;;;;;;6070651;23;20213;-72
2022/12/19 10:06:57;;;;;;;23.98;17.77;;;4.00;99.90;;;;;;6080308;23;20196;-72
2022/12/19 10:09:30;;;;;;;23.70;17.55;;;4.00;99.90;;;;;;6082637;23;20275;-71
2022/12/19 10:12:14;;;;;;;23.42;17.08;;;4.00;99.90;;;;;;6075843;23;20190;-71
2022/12/19 10:14:52;;;;;;;23.52;16.90;;;3.90;99.90;;;;;;6077220;23;20195;-71
2022/12/19 10:17:28;;;;;;;22.85;16.42;;;4.00;99.90;;;;;;6086270;23;20187;-71
2022/12/19 10:20:15;;;;;;;26.40;18.02;;;4.00;99.90;;;;;;6067609;23;20216;-71
2022/12/19 10:22:55;;;;;;;21.20;15.43;;;3.90;99.90;;;;;;6086171;23;20302;-71
2022/12/19 10:25:41;;;;;;;21.67;16.17;;;4.00;99.90;;;;;;6074658;23;20193;-71
2022/12/19 10:28:24;;;;;;;22.67;16.90;;;4.10;99.90;;;;;;6075235;23;20320;-71
2022/12/19 10:31:01;;;;;;;21.70;16.48;;;4.40;99.90;;;;;;6081635;23;20196;-71
2022/12/19 10:33:35;;;;;;;19.08;15.15;;;4.70;99.90;;;;;;6082993;23;20627;-71
2022/12/19 10:36:04;;;;;;;18.95;15.07;;;4.90;99.90;;;;;;6077211;23;20224;-74
2022/12/19 10:38:36;;;;;;;19.98;15.50;;;5.20;99.90;;;;;;6070983;23;20188;-71
2022/12/19 10:41:14;;;;;;;18.63;14.65;;;5.30;99.90;;;;;;6083472;23;20258;-71
2022/12/19 10:43:58;;;;;;;17.80;14.65;;;5.60;99.90;;;;;;6077072;23;20783;-71
2022/12/19 10:46:37;;;;;;;18.20;14.77;;;5.80;99.90;;;;;;6075359;23;20215;-71
2022/12/19 10:49:13;;;;;;;20.10;14.85;;;5.90;99.90;;;;;;6078399;23;20219;-71
2022/12/19 10:51:41;;;;;;;18.33;14.02;;;6.00;99.90;;;;;;6081144;23;20383;-71
2022/12/19 10:54:09;;;;;;;18.75;13.88;;;6.10;99.90;;;;;;6069573;23;20223;-71
2022/12/19 10:56:36;;;;;;;20.42;15.45;;;6.20;99.90;;;;;;6097146;23;20191;-71
2022/12/19 10:59:16;;;;;;;21.65;14.35;;;6.20;99.90;;;;;;6085164;23;20260;-71
2022/12/19 11:01:44;;;;;;;20.23;15.95;;;6.00;99.90;;;;;;6072584;23;20263;-72
2022/12/19 11:04:27;;;;;;;16.73;14.57;;;6.00;99.90;;;;;;6077896;23;20216;-71
2022/12/19 11:07:07;;;;;;;18.23;15.30;;;5.80;99.90;;;;;;6079302;23;20188;-71
2022/12/19 11:09:37;;;;;;;19.13;14.77;;;5.80;99.90;;;;;;6076885;23;20219;-71
2022/12/19 11:12:12;;;;;;;19.13;15.18;;;5.80;99.90;;;;;;6083010;23;20216;-71
2022/12/19 11:14:44;;;;;;;19.85;15.48;;;5.90;99.90;;;;;;6087833;23;20192;-71
2022/12/19 11:17:34;;;;;;;17.33;14.07;;;6.00;99.90;;;;;;6075206;23;20645;-72
2022/12/19 11:20:11;;;;;;;19.60;15.68;;;6.20;99.90;;;;;;6078401;23;20271;-71
2022/12/19 11:22:39;;;;;;;20.17;14.40;;;6.40;99.90;;;;;;6073305;23;20283;-71
2022/12/19 11:25:14;;;;;;;18.58;15.00;;;6.40;99.90;;;;;;6086711;23;20188;-71
2022/12/19 11:27:43;;;;;;;18.35;15.52;;;6.40;99.90;;;;;;6082220;23;20191;-72
2022/12/19 11:30:22;;;;;;;19.45;15.75;;;6.50;99.90;;;;;;6078658;23;20194;-70
2022/12/19 11:33:07;;;;;;;16.50;14.35;;;6.50;99.90;;;;;;6078023;23;20224;-71
2022/12/19 11:35:46;;;;;;;20.17;16.30;;;6.50;99.90;;;;;;6080810;23;20907;-71
2022/12/19 11:38:17;;;;;;;19.05;15.05;;;6.40;99.90;;;;;;6086336;23;20230;-71
2022/12/19 11:40:48;;;;;;;16.58;14.75;;;6.30;99.90;;;;;;6084254;23;20203;-71
2022/12/19 11:43:21;;;;;;;21.55;15.20;;;6.20;99.90;;;;;;6075469;23;20342;-72
2022/12/19 11:45:56;;;;;;;18.33;15.57;;;6.20;99.90;;;;;;6072128;23;20225;-71
2022/12/19 11:48:33;;;;;;;20.50;15.70;;;6.30;99.90;;;;;;6082823;23;20670;-72
2022/12/19 11:51:08;;;;;;;21.60;16.58;;;6.50;99.90;;;;;;6077122;23;20374;-70
2022/12/19 11:53:44;;;;;;;20.40;17.02;;;6.70;99.90;;;;;;6087166;23;20339;-71
2022/12/19 11:56:15;;;;;;;18.35;16.17;;;6.70;99.90;;;;;;6076807;23;20235;-72
2022/12/19 11:58:44;;;;;;;16.75;14.68;;;6.60;99.90;;;;;;6067185;23;20193;-71
2022/12/19 12:01:23;;;;;;;16.95;15.05;;;6.60;99.90;;;;;;6085865;23;20664;-71
2022/12/19 12:04:08;;;;;;;18.63;15.35;;;6.60;99.90;;;;;;6087198;23;20249;-72
2022/12/19 12:06:45;;;;;;;19.10;15.90;;;6.60;99.90;;;;;;6075018;23;20495;-71
2022/12/19 12:09:18;;;;;;;18.00;15.93;;;6.50;99.90;;;;;;6077787;23;20266;-72
2022/12/19 12:11:51;;;;;;;19.52;15.75;;;6.60;99.90;;;;;;6076304;23;20195;-71
2022/12/19 12:14:22;;;;;;;20.92;17.33;;;6.50;99.90;;;;;;6081363;23;20184;-72
2022/12/19 12:17:05;;;;;;;18.83;15.40;;;6.50;99.90;;;;;;6084275;23;20244;-72
2022/12/19 12:19:58;;;;;;;18.58;14.25;;;6.40;99.90;;;;;;6084276;23;20663;-73
2022/12/19 12:22:44;;;;;;;18.50;16.27;;;6.20;99.90;;;;;;6085052;23;20186;-72
2022/12/19 12:25:23;;;;;;;19.13;15.77;;;6.30;99.90;;;;;;6074262;23;20243;-72
2022/12/19 12:27:57;;;;;;;20.00;15.90;;;6.40;99.90;;;;;;6078976;23;20189;-72
2022/12/19 12:30:24;;;;;;;18.02;16.13;;;6.60;99.90;;;;;;6083325;23;20275;-72
2022/12/19 12:33:05;;;;;;;17.77;15.52;;;6.80;99.90;;;;;;6085904;23;20185;-73
2022/12/19 12:35:36;;;;;;;17.48;14.73;;;7.00;99.90;;;;;;6079889;23;20392;-72
2022/12/19 12:38:23;;;;;;;15.95;14.27;;;7.10;99.90;;;;;;6088681;23;20273;-71
2022/12/19 12:41:00;;;;;;;20.00;15.57;;;7.10;99.90;;;;;;6087429;23;20659;-72
2022/12/19 12:43:41;;;;;;;18.20;14.93;;;6.90;99.90;;;;;;6077350;23;20239;-71
2022/12/19 12:46:14;;;;;;;20.38;16.00;;;6.70;99.90;;;;;;6086120;23;20705;-71
2022/12/19 12:48:49;;;;;;;18.83;15.10;;;6.60;99.90;;;;;;6087354;23;20214;-71
2022/12/19 12:51:18;;;;;;;19.42;15.73;;;6.50;99.90;;;;;;6078462;23;20283;-71
2022/12/19 12:53:48;;;;;;;16.70;14.77;;;6.40;99.90;;;;;;6079891;23;20237;-71
2022/12/19 12:56:17;;;;;;;20.42;15.70;;;6.30;99.90;;;;;;6077798;23;20188;-74